Time;durP1;ratioP1;P1;durP2;ratioP2;P2;SDS_P1;SDS_P2;PMS_P1;PMS_P2;Temp;Humidity;BMP_temperature;BMP_pressure;BME280_temperature;BME280_humidity;BME280_pressure;Samples;Min_cycle;Max_cycle;Signal;HPM_P1;HPM_P2
2021/11/03 00:02:12;;;;;;;5.63;3.63;;;22.00;54.20;;;;;;5057054;28;20421;-79
2021/11/03 00:04:39;;;;;;;6.50;4.63;;;22.00;54.20;;;;;;5041437;28;20182;-79
2021/11/03 00:07:24;;;;;;;4.63;3.37;;;22.00;54.20;;;;;;5057766;28;20417;-79
2021/11/03 00:09:51;;;;;;;4.30;3.53;;;22.00;54.20;;;;;;5058314;28;20407;-79
2021/11/03 00:12:26;;;;;;;5.27;3.50;;;22.00;54.20;;;;;;5057281;28;20411;-79
2021/11/03 00:14:52;;;;;;;5.10;3.87;;;22.00;54.20;;;;;;5058133;28;20485;-79
2021/11/03 00:17:20;;;;;;;5.43;3.83;;;22.00;54.20;;;;;;5040349;28;20411;-79
2021/11/03 00:19:46;;;;;;;4.43;3.37;;;22.00;54.20;;;;;;5040143;28;20418;-79
2021/11/03 00:22:23;;;;;;;5.00;3.33;;;22.00;54.20;;;;;;5056512;28;20425;-79
2021/11/03 00:24:49;;;;;;;6.60;3.13;;;22.00;54.80;;;;;;5058287;28;20144;-79
2021/11/03 00:27:17;;;;;;;4.90;3.83;;;22.00;54.30;;;;;;5057948;28;20410;-80
2021/11/03 00:29:43;;;;;;;6.13;3.10;;;22.00;54.30;;;;;;5057643;28;20180;-79
2021/11/03 00:32:09;;;;;;;3.87;3.13;;;22.00;54.30;;;;;;5040167;28;20467;-79
2021/11/03 00:34:36;;;;;;;3.63;2.90;;;22.00;54.30;;;;;;5057492;28;20174;-79
2021/11/03 00:37:03;;;;;;;4.70;2.80;;;22.00;54.30;;;;;;5039983;28;20453;-78
2021/11/03 00:39:29;;;;;;;4.33;3.17;;;22.00;54.30;;;;;;5039914;28;20411;-79
2021/11/03 00:41:57;;;;;;;3.97;2.57;;;22.00;54.30;;;;;;5039583;28;20429;-79
2021/11/03 00:44:23;;;;;;;3.93;2.73;;;22.00;54.30;;;;;;5039300;28;20175;-79
2021/11/03 00:46:50;;;;;;;3.33;2.93;;;22.00;54.30;;;;;;5056894;28;20409;-79
2021/11/03 00:49:16;;;;;;;5.17;3.30;;;22.00;54.30;;;;;;5056847;28;20430;-78
2021/11/03 00:51:42;;;;;;;3.90;2.93;;;22.00;54.30;;;;;;5056826;28;20421;-79
2021/11/03 00:54:09;;;;;;;3.60;2.87;;;22.00;54.30;;;;;;5039782;28;20807;-78
2021/11/03 00:56:41;;;;;;;3.83;2.60;;;22.00;54.30;;;;;;5056820;28;20266;-79
2021/11/03 00:59:07;;;;;;;2.80;2.57;;;22.00;54.30;;;;;;5039805;28;20430;-79
2021/11/03 01:01:33;;;;;;;3.67;2.87;;;22.00;54.30;;;;;;5056510;28;20410;-79
2021/11/03 01:03:59;;;;;;;3.40;2.70;;;22.00;54.30;;;;;;5056989;28;20908;-78
2021/11/03 01:06:25;;;;;;;5.17;2.77;;;22.00;54.30;;;;;;5039427;28;20456;-79
2021/11/03 01:08:50;;;;;;;3.50;2.50;;;22.00;54.40;;;;;;5057377;28;20912;-79
2021/11/03 01:11:16;;;;;;;3.00;2.57;;;22.00;54.30;;;;;;5039224;28;20207;-79
2021/11/03 01:13:42;;;;;;;3.70;2.80;;;21.90;54.30;;;;;;5056854;28;20410;-79
2021/11/03 01:16:49;;;;;;;2.50;2.23;;;22.00;54.40;;;;;;5056597;28;20226;-79
2021/11/03 01:22:40;;;;;;;3.13;2.50;;;21.90;54.30;;;;;;5056899;28;20390;-79
2021/11/03 01:25:18;;;;;;;2.60;2.37;;;21.90;54.40;;;;;;5056011;28;20387;-78
2021/11/03 01:27:47;;;;;;;4.87;2.87;;;21.90;54.40;;;;;;5056027;28;20461;-79
2021/11/03 01:30:22;;;;;;;2.93;2.30;;;21.90;54.40;;;;;;5039693;28;20430;-79
2021/11/03 01:32:49;;;;;;;2.90;2.33;;;21.90;54.40;;;;;;5007323;28;20414;-79
2021/11/03 01:35:17;;;;;;;3.37;2.50;;;21.90;54.40;;;;;;5038766;28;20674;-79
2021/11/03 01:37:58;;;;;;;4.30;2.60;;;21.90;54.40;;;;;;5022895;28;20406;-79
2021/11/03 01:43:35;;;;;;;2.83;2.10;;;21.90;54.40;;;;;;5056096;28;20455;-79
2021/11/03 01:46:53;;;;;;;2.80;2.20;;;21.90;54.40;;;;;;5038439;28;20418;-79
2021/11/03 01:49:31;;;;;;;2.53;2.33;;;21.90;54.40;;;;;;5015274;28;20924;-79
2021/11/03 01:52:28;;;;;;;2.40;1.90;;;21.90;54.50;;;;;;5055668;28;20411;-79
2021/11/03 01:59:17;;;;;;;2.70;2.33;;;21.90;54.50;;;;;;5056102;28;20382;-78
2021/11/03 02:02:24;;;;;;;3.80;2.40;;;21.80;54.50;;;;;;5052452;28;20422;-78
2021/11/03 02:04:53;;;;;;;2.67;2.17;;;21.90;54.60;;;;;;5038429;28;20421;-78
2021/11/03 02:07:41;;;;;;;2.73;1.90;;;21.80;54.50;;;;;;5039656;28;20445;-79
2021/11/03 02:10:13;;;;;;;2.13;1.90;;;21.80;54.50;;;;;;5039767;28;20439;-79
2021/11/03 02:12:47;;;;;;;2.70;2.03;;;21.80;54.50;;;;;;5038766;28;20383;-79
2021/11/03 02:15:23;;;;;;;2.30;2.10;;;21.80;54.50;;;;;;5045247;28;20481;-79
2021/11/03 02:17:55;;;;;;;2.47;1.73;;;21.80;54.50;;;;;;5055455;28;20390;-79
2021/11/03 02:20:27;;;;;;;2.40;1.70;;;21.80;54.50;;;;;;5039321;28;20387;-79
2021/11/03 02:23:21;;;;;;;3.93;1.67;;;21.80;54.50;;;;;;5020788;28;20464;-79
2021/11/03 02:25:53;;;;;;;2.57;1.90;;;21.80;54.40;;;;;;5055119;28;20441;-79
2021/11/03 02:28:27;;;;;;;2.30;1.90;;;21.80;54.40;;;;;;5038634;28;20952;-79
2021/11/03 02:30:55;;;;;;;1.83;1.70;;;21.80;54.40;;;;;;5036359;28;20426;-79
2021/11/03 02:33:27;;;;;;;2.20;1.50;;;21.80;54.40;;;;;;5005741;28;20498;-79
2021/11/03 02:35:59;;;;;;;2.03;1.83;;;21.80;54.50;;;;;;5055093;28;20936;-79
2021/11/03 02:38:44;;;;;;;2.10;1.90;;;21.80;54.40;;;;;;5055467;28;20383;-79
2021/11/03 02:41:34;;;;;;;1.93;1.70;;;21.90;54.50;;;;;;5054390;28;20421;-79
2021/11/03 02:47:29;;;;;;;2.00;1.70;;;21.80;54.40;;;;;;5055425;28;20911;-78
2021/11/03 02:49:55;;;;;;;4.13;1.80;;;21.80;54.50;;;;;;5020843;28;20450;-79
2021/11/03 02:52:28;;;;;;;3.40;1.80;;;21.80;54.50;;;;;;5038303;28;20506;-79
2021/11/03 02:55:16;;;;;;;3.60;1.47;;;21.80;54.50;;;;;;5037376;28;20442;-79
2021/11/03 02:57:43;;;;;;;3.20;1.70;;;21.80;54.50;;;;;;5038739;28;20410;-79
2021/11/03 03:00:21;;;;;;;2.63;1.83;;;21.80;54.50;;;;;;5055207;28;20430;-79
2021/11/03 03:02:48;;;;;;;2.53;1.87;;;21.80;54.50;;;;;;5037683;28;20414;-79
2021/11/03 03:05:35;;;;;;;2.20;1.77;;;21.80;54.50;;;;;;5038357;28;20437;-79
2021/11/03 03:08:07;;;;;;;2.57;2.00;;;21.80;54.50;;;;;;5055403;28;20430;-79
2021/11/03 03:10:36;;;;;;;2.00;1.80;;;21.80;54.50;;;;;;5038038;28;20819;-78
2021/11/03 03:13:06;;;;;;;1.90;1.60;;;21.80;54.50;;;;;;5039816;28;20422;-78
2021/11/03 03:15:32;;;;;;;1.60;1.40;;;21.80;54.50;;;;;;5041761;28;20454;-79
2021/11/03 03:18:10;;;;;;;1.90;1.57;;;21.80;54.50;;;;;;5058800;28;20433;-79
2021/11/03 03:21:06;;;;;;;2.33;1.53;;;21.80;55.10;;;;;;5041715;28;20390;-78
2021/11/03 03:23:42;;;;;;;2.10;1.70;;;21.80;54.40;;;;;;5058483;28;20394;-78
2021/11/03 03:26:12;;;;;;;2.80;1.97;;;21.80;54.50;;;;;;5040942;28;20495;-79
2021/11/03 03:28:42;;;;;;;2.80;1.87;;;21.80;54.50;;;;;;5058938;28;20451;-79
2021/11/03 03:31:13;;;;;;;1.60;1.40;;;21.80;54.50;;;;;;5024988;28;20481;-79
2021/11/03 03:33:50;;;;;;;1.70;1.47;;;21.80;54.50;;;;;;5040844;28;20486;-80
2021/11/03 03:36:17;;;;;;;1.83;1.50;;;21.80;54.50;;;;;;5058756;28;20875;-80
2021/11/03 03:38:57;;;;;;;1.67;1.33;;;21.80;54.50;;;;;;5042566;28;20398;-80
2021/11/03 03:41:25;;;;;;;2.70;1.70;;;21.80;54.60;;;;;;5058520;28;20414;-79
2021/11/03 03:44:02;;;;;;;1.83;1.53;;;21.80;54.50;;;;;;5023386;28;20426;-80
2021/11/03 03:46:29;;;;;;;1.47;1.37;;;21.80;54.50;;;;;;5058336;28;20417;-80
2021/11/03 03:48:59;;;;;;;1.90;1.37;;;21.80;54.50;;;;;;5057852;28;20444;-80
2021/11/03 03:51:29;;;;;;;2.10;1.50;;;21.80;54.50;;;;;;5040530;28;20491;-80
2021/11/03 03:53:57;;;;;;;2.13;1.70;;;21.80;54.50;;;;;;5058156;28;20410;-80
2021/11/03 03:56:24;;;;;;;1.47;1.33;;;21.80;54.60;;;;;;5040547;28;20476;-80
2021/11/03 03:58:58;;;;;;;1.77;1.53;;;21.80;54.50;;;;;;5041081;28;20417;-80
2021/11/03 04:01:27;;;;;;;1.60;1.33;;;21.80;54.50;;;;;;5039347;28;20413;-80
2021/11/03 04:03:55;;;;;;;2.83;1.70;;;21.80;54.60;;;;;;5055240;28;20414;-80
2021/11/03 04:06:30;;;;;;;2.57;1.80;;;21.80;54.60;;;;;;5040741;28;20434;-79
2021/11/03 04:08:59;;;;;;;1.83;1.63;;;21.80;54.60;;;;;;5040605;28;20479;-79
2021/11/03 04:11:26;;;;;;;3.23;1.50;;;21.80;54.60;;;;;;5040849;28;20414;-79
2021/11/03 04:13:56;;;;;;;2.50;1.70;;;21.80;54.60;;;;;;5039898;28;20426;-80
2021/11/03 04:19:15;;;;;;;1.93;1.40;;;21.80;54.50;;;;;;5058405;28;20394;-80
2021/11/03 04:21:46;;;;;;;2.07;1.80;;;21.80;54.60;;;;;;5024276;28;20434;-79
2021/11/03 04:24:14;;;;;;;1.80;1.50;;;21.80;54.60;;;;;;5040161;28;20423;-80
2021/11/03 04:26:49;;;;;;;1.40;1.30;;;21.80;54.60;;;;;;5023851;28;20413;-80
2021/11/03 04:29:22;;;;;;;3.40;1.40;;;21.80;54.60;;;;;;5023895;28;20409;-79
2021/11/03 04:31:54;;;;;;;1.63;1.20;;;21.80;54.60;;;;;;5040544;28;20474;-79
2021/11/03 04:34:26;;;;;;;1.93;1.70;;;21.80;54.60;;;;;;5036723;28;20423;-80
2021/11/03 04:36:53;;;;;;;2.57;2.07;;;21.80;54.60;;;;;;5039496;28;20509;-80
2021/11/03 04:39:20;;;;;;;1.73;1.60;;;21.80;54.60;;;;;;5039744;28;20450;-80
2021/11/03 04:41:50;;;;;;;2.47;1.50;;;21.80;54.60;;;;;;5057141;28;20433;-80
2021/11/03 04:44:18;;;;;;;2.00;1.80;;;21.80;54.60;;;;;;5040494;28;20502;-80
2021/11/03 04:50:17;;;;;;;3.70;1.53;;;21.80;54.60;;;;;;4997250;28;20428;-80
2021/11/03 04:52:49;;;;;;;1.47;1.10;;;21.70;54.60;;;;;;4964238;28;20452;-80
2021/11/03 04:55:40;;;;;;;1.40;1.20;;;21.70;54.60;;;;;;4990482;28;20461;-80
2021/11/03 04:58:10;;;;;;;1.63;1.53;;;21.70;54.60;;;;;;4964553;28;20421;-79
2021/11/03 05:00:37;;;;;;;1.30;1.20;;;21.70;54.60;;;;;;4978708;28;20429;-80
2021/11/03 05:03:04;;;;;;;1.60;1.40;;;21.70;54.60;;;;;;4980444;28;20432;-80
2021/11/03 05:05:43;;;;;;;1.40;1.30;;;21.70;54.60;;;;;;4996274;28;20465;-79
2021/11/03 05:08:14;;;;;;;1.93;1.30;;;21.70;54.60;;;;;;4979757;28;20484;-80
2021/11/03 05:10:42;;;;;;;1.60;1.17;;;21.70;54.60;;;;;;4979938;28;20421;-80
2021/11/03 05:13:10;;;;;;;1.83;1.63;;;21.70;54.60;;;;;;4979590;28;20428;-80
2021/11/03 05:15:36;;;;;;;3.50;1.60;;;21.70;54.60;;;;;;4963801;28;20564;-80
2021/11/03 05:18:16;;;;;;;1.80;1.57;;;21.70;54.60;;;;;;4996564;28;20437;-80
2021/11/03 05:20:45;;;;;;;2.00;1.50;;;21.70;54.60;;;;;;4979756;28;20966;-79
2021/11/03 05:23:16;;;;;;;1.63;1.20;;;21.70;54.60;;;;;;4978034;28;20413;-80
2021/11/03 05:25:49;;;;;;;1.57;1.27;;;21.70;54.60;;;;;;4995811;28;20410;-80
2021/11/03 05:28:16;;;;;;;1.20;0.97;;;21.70;54.60;;;;;;4964205;28;20421;-80
2021/11/03 05:30:46;;;;;;;1.20;1.10;;;21.70;54.60;;;;;;4980428;28;20416;-80
2021/11/03 05:33:15;;;;;;;1.20;1.03;;;21.70;54.60;;;;;;5026887;28;20403;-79
2021/11/03 05:35:51;;;;;;;1.33;1.03;;;21.70;54.60;;;;;;5054116;28;20489;-79
2021/11/03 05:38:21;;;;;;;1.67;1.27;;;21.70;54.60;;;;;;5036154;28;20453;-80
2021/11/03 05:40:59;;;;;;;1.50;1.40;;;21.70;54.50;;;;;;5041375;28;20418;-79
2021/11/03 05:43:27;;;;;;;1.57;1.30;;;21.80;54.60;;;;;;5057405;28;20532;-80
2021/11/03 05:45:54;;;;;;;1.80;1.20;;;21.80;54.60;;;;;;5055566;28;20462;-80
2021/11/03 05:48:27;;;;;;;1.90;1.40;;;21.80;54.50;;;;;;5056993;28;20395;-80
2021/11/03 05:50:53;;;;;;;1.90;1.20;;;21.80;54.50;;;;;;5073108;28;20406;-80
2021/11/03 05:56:41;;;;;;;1.70;1.20;;;21.80;54.40;;;;;;5076833;28;20239;-81
2021/11/03 05:59:07;;;;;;;1.60;1.33;;;21.80;54.40;;;;;;5075955;28;20433;-81
2021/11/03 06:01:33;;;;;;;1.87;1.30;;;21.80;54.40;;;;;;5058651;28;20448;-80
2021/11/03 06:03:59;;;;;;;1.17;1.07;;;21.80;54.40;;;;;;5075843;28;20472;-80
2021/11/03 06:06:28;;;;;;;1.50;1.37;;;21.80;54.40;;;;;;5058505;28;20206;-81
2021/11/03 06:08:57;;;;;;;2.23;1.43;;;21.80;54.30;;;;;;5058352;28;20179;-81
2021/11/03 06:11:24;;;;;;;1.60;1.10;;;21.80;54.30;;;;;;5058009;28;20428;-80
2021/11/03 06:13:50;;;;;;;2.20;1.57;;;21.90;54.40;;;;;;5058144;28;20421;-80
2021/11/03 06:16:16;;;;;;;1.57;1.30;;;21.90;54.30;;;;;;5057890;28;20465;-80
2021/11/03 06:18:42;;;;;;;1.73;1.40;;;21.90;54.30;;;;;;5075128;28;20409;-80
2021/11/03 06:21:08;;;;;;;1.87;1.50;;;21.90;54.30;;;;;;5057790;28;20170;-81
2021/11/03 06:23:34;;;;;;;1.40;1.30;;;21.90;54.30;;;;;;5075240;28;20429;-81
2021/11/03 06:26:00;;;;;;;1.43;1.07;;;21.90;54.30;;;;;;5058152;28;20421;-81
2021/11/03 06:28:29;;;;;;;1.20;1.10;;;21.90;54.90;;;;;;5058185;28;20550;-80
2021/11/03 06:30:55;;;;;;;2.00;1.30;;;21.90;54.30;;;;;;5057795;28;20448;-80
2021/11/03 06:33:22;;;;;;;1.90;1.23;;;21.90;54.20;;;;;;5058123;28;20464;-81
2021/11/03 06:35:49;;;;;;;1.57;1.20;;;21.90;54.20;;;;;;5057834;28;20500;-81
2021/11/03 06:38:16;;;;;;;1.23;1.10;;;21.90;54.20;;;;;;5058003;28;20487;-80
2021/11/03 06:40:42;;;;;;;1.40;1.30;;;21.90;54.20;;;;;;5059297;28;20397;-81
2021/11/03 06:43:09;;;;;;;1.40;1.30;;;21.90;54.20;;;;;;5076082;28;20500;-80
2021/11/03 06:49:11;;;;;;;3.07;1.30;;;21.90;54.20;;;;;;5075649;28;20468;-80
2021/11/03 06:51:38;;;;;;;1.80;1.30;;;21.90;54.30;;;;;;5038926;28;20398;-80
2021/11/03 06:54:04;;;;;;;1.50;1.30;;;21.90;54.30;;;;;;5038696;28;20418;-80
2021/11/03 06:56:30;;;;;;;1.20;1.00;;;21.90;54.30;;;;;;5039106;28;20485;-80
2021/11/03 06:58:59;;;;;;;1.50;1.20;;;21.90;54.30;;;;;;5038324;28;20430;-81
2021/11/03 07:01:28;;;;;;;1.33;1.20;;;21.90;54.20;;;;;;5038313;28;20179;-81
2021/11/03 07:03:55;;;;;;;1.50;1.40;;;21.90;54.20;;;;;;5037524;28;20421;-80
2021/11/03 07:06:21;;;;;;;1.60;1.30;;;21.90;54.20;;;;;;5054886;28;20445;-81
2021/11/03 07:08:47;;;;;;;1.57;1.30;;;21.90;54.20;;;;;;5054973;28;20387;-81
2021/11/03 07:11:13;;;;;;;2.03;1.30;;;21.90;54.20;;;;;;5055213;28;20179;-80
2021/11/03 07:13:39;;;;;;;1.57;1.30;;;21.90;54.80;;;;;;5055133;28;20421;-80
2021/11/03 07:19:34;;;;;;;1.67;1.30;;;21.90;54.20;;;;;;5055424;28;20151;-80
2021/11/03 07:21:59;;;;;;;1.53;1.20;;;21.90;54.20;;;;;;5037873;28;20514;-79
2021/11/03 07:24:25;;;;;;;1.70;1.33;;;21.90;54.20;;;;;;5037754;28;20410;-80
2021/11/03 07:30:15;;;;;;;1.73;1.33;;;21.90;54.20;;;;;;5054893;28;20144;-80
2021/11/03 07:32:41;;;;;;;1.60;1.23;;;21.90;54.20;;;;;;5053988;28;20444;-80
2021/11/03 07:36:00;;;;;;;1.40;1.20;;;21.90;54.20;;;;;;5037580;28;20520;-79
2021/11/03 07:38:26;;;;;;;2.03;1.30;;;21.90;54.10;;;;;;5055317;28;20402;-80
2021/11/03 07:44:16;;;;;;;1.60;1.07;;;22.00;54.20;;;;;;5055389;28;20394;-79
2021/11/03 07:46:42;;;;;;;1.37;1.27;;;21.90;54.20;;;;;;5055399;28;20418;-80
2021/11/03 07:49:08;;;;;;;1.50;1.27;;;21.90;54.20;;;;;;5056034;28;20414;-79
2021/11/03 07:51:34;;;;;;;1.57;1.13;;;21.90;54.10;;;;;;5055197;28;20183;-79
2021/11/03 07:54:00;;;;;;;1.63;1.43;;;21.90;54.60;;;;;;5037615;28;20426;-79
2021/11/03 07:56:30;;;;;;;1.43;1.30;;;22.00;54.10;;;;;;5038551;28;20469;-80
2021/11/03 07:58:56;;;;;;;2.40;1.53;;;22.00;54.10;;;;;;5054957;28;20155;-81
2021/11/03 08:01:25;;;;;;;1.30;1.00;;;22.00;54.10;;;;;;5059254;28;20406;-80
2021/11/03 08:03:51;;;;;;;1.70;1.23;;;22.00;54.10;;;;;;5058496;28;20410;-79
2021/11/03 08:06:18;;;;;;;2.07;1.30;;;22.00;54.10;;;;;;5058268;28;20420;-80
2021/11/03 08:09:04;;;;;;;1.73;1.30;;;22.00;54.00;;;;;;5057851;28;20402;-80
2021/11/03 08:11:45;;;;;;;1.80;1.57;;;22.00;54.00;;;;;;5041173;28;20417;-80
2021/11/03 08:14:11;;;;;;;2.07;1.70;;;22.00;54.00;;;;;;5057896;28;20421;-79
2021/11/03 08:16:49;;;;;;;1.40;1.13;;;22.00;54.00;;;;;;5040403;28;20509;-79
2021/11/03 08:19:16;;;;;;;1.50;1.23;;;22.00;54.00;;;;;;5057917;28;20152;-79
2021/11/03 08:21:43;;;;;;;2.43;1.20;;;22.00;54.00;;;;;;5040443;28;20425;-81
2021/11/03 08:24:09;;;;;;;1.47;1.20;;;22.00;53.70;;;;;;5040601;28;20402;-81
2021/11/03 08:26:35;;;;;;;1.73;1.20;;;22.00;54.00;;;;;;5057928;28;20502;-80
2021/11/03 08:29:06;;;;;;;1.23;1.10;;;22.00;54.00;;;;;;5057999;28;20179;-80
2021/11/03 08:31:34;;;;;;;1.20;1.10;;;22.00;54.00;;;;;;5057577;28;20398;-79
2021/11/03 08:34:01;;;;;;;1.93;1.50;;;22.00;54.00;;;;;;5039991;28;20449;-80
2021/11/03 08:36:29;;;;;;;1.30;1.07;;;22.00;54.00;;;;;;5040452;28;20489;-79
2021/11/03 08:38:56;;;;;;;1.10;1.00;;;22.00;54.00;;;;;;5057647;28;20460;-79
2021/11/03 08:41:22;;;;;;;1.43;1.20;;;22.00;54.00;;;;;;5057792;28;20410;-78
2021/11/03 08:43:50;;;;;;;1.53;1.30;;;22.00;54.00;;;;;;5040870;28;20406;-80
2021/11/03 08:46:17;;;;;;;1.40;1.10;;;22.00;54.00;;;;;;5058194;28;20426;-79
2021/11/03 08:48:42;;;;;;;1.97;1.37;;;22.00;53.90;;;;;;5041450;28;20445;-79
2021/11/03 08:51:08;;;;;;;1.80;1.20;;;22.00;53.90;;;;;;5058346;28;20478;-80
2021/11/03 08:53:34;;;;;;;1.80;1.40;;;22.00;54.00;;;;;;5040193;28;20187;-79
2021/11/03 08:56:03;;;;;;;3.00;1.10;;;22.00;53.90;;;;;;5057636;28;20461;-79
2021/11/03 08:58:29;;;;;;;2.33;1.40;;;22.10;54.00;;;;;;5040518;28;20176;-80
2021/11/03 09:00:57;;;;;;;1.57;1.30;;;22.10;54.00;;;;;;5056701;28;20470;-79
2021/11/03 09:03:23;;;;;;;1.20;1.07;;;22.10;54.00;;;;;;5057874;28;20156;-80
2021/11/03 09:05:50;;;;;;;1.27;0.90;;;22.10;54.00;;;;;;5058228;28;20429;-80
2021/11/03 09:08:17;;;;;;;2.30;2.00;;;22.10;54.00;;;;;;5040345;28;20425;-78
2021/11/03 09:10:53;;;;;;;1.60;1.33;;;22.10;54.00;;;;;;5056710;28;20414;-78
2021/11/03 09:13:25;;;;;;;4.10;1.63;;;22.10;54.00;;;;;;5057815;28;20383;-79
2021/11/03 09:15:51;;;;;;;3.67;3.00;;;22.10;54.00;;;;;;5057335;28;20446;-79
2021/11/03 09:18:18;;;;;;;2.70;2.40;;;22.10;54.00;;;;;;5039787;28;20438;-79
2021/11/03 09:20:46;;;;;;;2.27;2.07;;;22.10;54.00;;;;;;5053003;28;20985;-79
2021/11/03 09:23:13;;;;;;;2.70;2.33;;;22.10;53.90;;;;;;5051722;28;20509;-79
2021/11/03 09:25:39;;;;;;;3.20;1.70;;;22.10;53.90;;;;;;5051431;28;20411;-80
2021/11/03 09:28:05;;;;;;;3.00;1.80;;;22.10;53.90;;;;;;5033977;28;20556;-79
2021/11/03 09:30:31;;;;;;;2.40;1.60;;;22.10;53.90;;;;;;5051729;28;20229;-80
2021/11/03 09:33:03;;;;;;;2.03;1.83;;;22.10;53.90;;;;;;5034446;28;20413;-80
2021/11/03 09:35:36;;;;;;;2.60;1.90;;;22.10;53.90;;;;;;5035000;28;20489;-80
2021/11/03 09:38:02;;;;;;;5.73;1.93;;;22.10;53.90;;;;;;5034924;28;20429;-80
2021/11/03 09:40:32;;;;;;;5.17;2.17;;;22.10;53.90;;;;;;5034067;28;20414;-79
2021/11/03 09:42:59;;;;;;;4.90;2.10;;;22.10;53.90;;;;;;5052011;28;20403;-80
2021/11/03 09:45:33;;;;;;;3.87;1.97;;;22.10;53.90;;;;;;5052271;28;20413;-80
2021/11/03 09:48:18;;;;;;;2.97;2.23;;;22.10;53.90;;;;;;5034669;28;20406;-79
2021/11/03 09:50:48;;;;;;;2.40;1.80;;;22.10;53.90;;;;;;5035984;28;20411;-78
2021/11/03 09:53:40;;;;;;;3.47;1.70;;;22.10;54.00;;;;;;5034610;28;20468;-79
2021/11/03 09:56:20;;;;;;;5.83;2.73;;;22.10;53.90;;;;;;5035918;28;20454;-79
2021/11/03 09:59:18;;;;;;;3.43;1.80;;;22.10;54.00;;;;;;5035003;28;20410;-79
2021/11/03 10:02:23;;;;;;;2.53;1.80;;;22.10;54.00;;;;;;5014424;28;20426;-79
2021/11/03 10:04:57;;;;;;;6.63;1.90;;;22.10;54.00;;;;;;5035141;28;20410;-79
2021/11/03 10:07:41;;;;;;;6.33;3.13;;;22.10;54.10;;;;;;5033243;28;20402;-79
2021/11/03 10:10:38;;;;;;;3.60;1.87;;;22.10;54.10;;;;;;5050340;28;20425;-79
2021/11/03 10:13:15;;;;;;;2.33;1.90;;;22.10;54.10;;;;;;5033700;28;20417;-79
2021/11/03 10:16:22;;;;;;;2.30;1.73;;;22.10;54.10;;;;;;5017307;28;20464;-79
2021/11/03 10:19:09;;;;;;;1.70;1.33;;;22.00;54.00;;;;;;5050299;28;20418;-80
2021/11/03 10:21:43;;;;;;;3.20;1.90;;;22.10;54.20;;;;;;5049799;28;20398;-80
2021/11/03 10:24:12;;;;;;;2.40;1.73;;;22.00;54.10;;;;;;5034482;28;20441;-80
2021/11/03 10:26:57;;;;;;;2.27;1.90;;;22.00;54.10;;;;;;5050698;28;20498;-79
2021/11/03 10:29:34;;;;;;;3.87;2.30;;;22.10;54.10;;;;;;5033714;28;20778;-80
2021/11/03 10:32:20;;;;;;;5.00;2.60;;;22.10;54.20;;;;;;5033477;28;20406;-80
2021/11/03 10:35:11;;;;;;;2.03;1.70;;;22.10;54.20;;;;;;5051543;28;20409;-79
2021/11/03 10:37:41;;;;;;;4.37;1.97;;;22.00;54.10;;;;;;4996051;28;20426;-80
2021/11/03 10:40:15;;;;;;;3.80;1.90;;;22.00;54.10;;;;;;5033687;28;20448;-79
2021/11/03 10:42:42;;;;;;;2.53;1.40;;;22.00;54.10;;;;;;5051006;28;20390;-79
2021/11/03 10:45:28;;;;;;;4.07;1.63;;;22.00;54.10;;;;;;5051580;28;20410;-78
2021/11/03 10:48:23;;;;;;;2.90;1.77;;;22.00;54.10;;;;;;5034801;28;20469;-80
2021/11/03 10:50:54;;;;;;;2.80;1.37;;;22.00;54.10;;;;;;5050578;28;20395;-80
2021/11/03 10:53:36;;;;;;;2.40;1.30;;;22.00;54.20;;;;;;5051532;28;20426;-80
2021/11/03 10:56:09;;;;;;;1.67;1.43;;;22.00;54.20;;;;;;5034581;28;20578;-80
2021/11/03 10:58:50;;;;;;;2.53;1.63;;;22.00;54.20;;;;;;5050842;28;20395;-80
2021/11/03 11:01:27;;;;;;;4.27;1.77;;;22.10;54.20;;;;;;5034367;28;20406;-80
2021/11/03 11:04:12;;;;;;;3.63;1.57;;;22.00;54.10;;;;;;5033911;28;20407;-80
2021/11/03 11:06:52;;;;;;;3.60;1.50;;;22.10;54.20;;;;;;5049882;28;20413;-80
2021/11/03 11:09:37;;;;;;;1.60;1.20;;;22.00;54.20;;;;;;5032182;28;20465;-80
2021/11/03 11:12:15;;;;;;;1.93;1.70;;;22.10;54.20;;;;;;5049949;28;20429;-79
2021/11/03 11:14:40;;;;;;;3.87;1.77;;;22.10;54.20;;;;;;5049985;28;20406;-79
2021/11/03 11:17:36;;;;;;;3.87;1.27;;;22.00;54.20;;;;;;5050437;28;20450;-79
2021/11/03 11:20:16;;;;;;;2.03;1.40;;;22.10;54.20;;;;;;5033079;28;20176;-80
2021/11/03 11:23:24;;;;;;;3.90;1.27;;;22.10;54.20;;;;;;5032793;28;20510;-80
2021/11/03 11:26:16;;;;;;;1.60;1.10;;;22.10;54.20;;;;;;4954798;29;20421;-80
2021/11/03 11:29:00;;;;;;;2.53;1.50;;;22.10;54.20;;;;;;4954912;29;20449;-80
2021/11/03 11:31:53;;;;;;;3.03;1.40;;;22.10;54.20;;;;;;5017752;28;20414;-80
2021/11/03 11:35:00;;;;;;;1.80;1.17;;;22.10;54.20;;;;;;5034608;28;20406;-80
2021/11/03 11:38:00;;;;;;;2.07;1.20;;;22.10;54.20;;;;;;5046929;28;20422;-80
2021/11/03 11:40:55;;;;;;;2.67;1.40;;;22.10;54.30;;;;;;5054795;28;20448;-79
2021/11/03 11:43:35;;;;;;;1.90;1.70;;;22.00;54.20;;;;;;5035702;28;20410;-80
2021/11/03 11:46:21;;;;;;;3.50;1.60;;;22.00;54.20;;;;;;5054169;28;20911;-80
2021/11/03 11:48:58;;;;;;;2.70;1.27;;;22.00;54.20;;;;;;5036791;28;20458;-80
2021/11/03 11:51:34;;;;;;;2.60;1.63;;;22.10;54.30;;;;;;5036467;28;20913;-80
2021/11/03 11:54:02;;;;;;;2.90;1.40;;;22.10;54.30;;;;;;5053554;28;20505;-80
2021/11/03 11:56:33;;;;;;;3.00;1.50;;;22.00;54.20;;;;;;5054493;28;20515;-80
2021/11/03 11:59:11;;;;;;;2.43;1.47;;;22.00;54.20;;;;;;5036829;28;20398;-80
2021/11/03 12:01:37;;;;;;;3.70;1.50;;;22.00;54.20;;;;;;5054513;28;20394;-79
2021/11/03 12:04:09;;;;;;;1.93;1.30;;;22.10;54.30;;;;;;5054093;28;20411;-80
2021/11/03 12:06:46;;;;;;;2.30;1.33;;;22.10;54.30;;;;;;5053298;28;20673;-80
2021/11/03 12:09:39;;;;;;;4.83;1.30;;;22.10;54.30;;;;;;5053459;28;20441;-80
2021/11/03 12:12:11;;;;;;;1.93;1.30;;;22.10;54.30;;;;;;5033293;28;20419;-80
2021/11/03 12:14:46;;;;;;;2.90;1.60;;;22.10;54.90;;;;;;5016455;28;20430;-80
2021/11/03 12:17:43;;;;;;;2.60;1.17;;;22.10;54.30;;;;;;5015878;28;20454;-80
2021/11/03 12:20:41;;;;;;;1.20;1.00;;;22.10;54.30;;;;;;5015265;28;20438;-80
2021/11/03 12:23:44;;;;;;;3.03;1.50;;;22.10;54.30;;;;;;5015347;28;20427;-80
2021/11/03 12:26:25;;;;;;;2.10;1.33;;;22.10;54.30;;;;;;5032652;28;20419;-80
2021/11/03 12:29:23;;;;;;;1.90;1.03;;;22.00;54.30;;;;;;5033239;28;20415;-80
2021/11/03 12:31:54;;;;;;;2.03;1.30;;;22.00;54.30;;;;;;5032673;28;20423;-80
2021/11/03 12:34:28;;;;;;;2.70;1.27;;;22.00;54.30;;;;;;5016233;28;20415;-81
2021/11/03 12:37:02;;;;;;;2.27;1.10;;;22.00;54.30;;;;;;5037171;28;20461;-80
2021/11/03 12:39:33;;;;;;;2.00;1.30;;;22.10;54.40;;;;;;5020835;28;20889;-80
2021/11/03 12:42:10;;;;;;;2.80;1.27;;;22.10;54.40;;;;;;5020985;28;20423;-80
2021/11/03 12:44:49;;;;;;;2.70;1.23;;;22.10;54.40;;;;;;5037348;28;20391;-80
2021/11/03 12:47:34;;;;;;;3.03;1.20;;;22.10;54.30;;;;;;5037339;28;20474;-80
2021/11/03 12:50:12;;;;;;;2.07;1.10;;;22.10;54.30;;;;;;5037156;28;20471;-80
2021/11/03 12:52:44;;;;;;;1.70;1.50;;;22.00;54.30;;;;;;5020038;28;20443;-80
2021/11/03 12:55:29;;;;;;;1.73;1.20;;;22.10;54.30;;;;;;5037040;28;20387;-80
2021/11/03 12:57:59;;;;;;;1.63;0.90;;;22.10;54.30;;;;;;5020499;28;20499;-80
2021/11/03 13:00:33;;;;;;;2.40;1.10;;;22.00;54.30;;;;;;5020532;28;20420;-80
2021/11/03 13:03:04;;;;;;;2.23;1.00;;;22.00;54.30;;;;;;5037489;28;20368;-80
2021/11/03 13:05:45;;;;;;;1.80;1.30;;;22.10;54.30;;;;;;5020637;28;20399;-80
2021/11/03 13:08:40;;;;;;;3.03;1.73;;;22.10;54.30;;;;;;5037842;28;20400;-80
2021/11/03 13:11:26;;;;;;;1.73;1.27;;;22.10;54.30;;;;;;5037503;28;20394;-80
2021/11/03 13:14:00;;;;;;;1.80;1.20;;;22.10;54.40;;;;;;5037448;28;20379;-80
2021/11/03 13:16:31;;;;;;;2.10;0.90;;;22.10;54.40;;;;;;5037464;28;20435;-80
2021/11/03 13:18:58;;;;;;;1.70;1.10;;;22.10;54.40;;;;;;5019464;28;20399;-80
2021/11/03 13:21:36;;;;;;;1.10;1.00;;;22.00;54.80;;;;;;5037170;28;20422;-80
2021/11/03 13:24:14;;;;;;;2.80;1.30;;;22.00;54.30;;;;;;5037090;28;20396;-80
2021/11/03 13:26:41;;;;;;;1.30;1.03;;;22.10;54.30;;;;;;5037113;28;20443;-80
2021/11/03 13:29:33;;;;;;;2.10;1.13;;;22.10;54.40;;;;;;5019691;28;20408;-80
2021/11/03 13:32:15;;;;;;;2.27;1.00;;;22.10;54.40;;;;;;5036506;28;20423;-80
2021/11/03 13:34:45;;;;;;;2.03;1.20;;;22.10;54.40;;;;;;5037079;28;20772;-79
2021/11/03 13:37:14;;;;;;;1.20;0.90;;;22.10;54.40;;;;;;5019542;28;20462;-80
2021/11/03 13:40:09;;;;;;;1.83;1.10;;;22.00;54.30;;;;;;5036889;28;20415;-80
2021/11/03 13:42:46;;;;;;;1.17;1.03;;;22.10;54.40;;;;;;5019904;28;20407;-80
2021/11/03 13:45:25;;;;;;;1.30;1.00;;;22.00;54.40;;;;;;5019597;28;20411;-79
2021/11/03 13:48:03;;;;;;;1.73;1.27;;;22.00;54.40;;;;;;5036356;28;20380;-80
2021/11/03 13:50:37;;;;;;;2.07;1.23;;;22.00;54.40;;;;;;5036575;28;20732;-80
2021/11/03 13:53:09;;;;;;;1.50;0.90;;;22.00;54.40;;;;;;5018484;28;20518;-79
2021/11/03 13:55:53;;;;;;;1.90;1.20;;;22.00;54.40;;;;;;5019404;28;20443;-80
2021/11/03 13:58:34;;;;;;;2.67;1.20;;;22.00;54.40;;;;;;5035421;28;20396;-80
2021/11/03 14:01:08;;;;;;;2.27;1.10;;;22.00;54.40;;;;;;5036152;28;20398;-80